sensor_id;sensor_type;location;lat;lon;timestamp;P1;durP1;ratioP1;P2;durP2;ratioP2
6113;SDS011;3087;48.392;10.836;2022-10-04T00:00:56;9.23;;;6.60;;
6113;SDS011;3087;48.392;10.836;2022-10-04T00:06:18;5.77;;;4.80;;
6113;SDS011;3087;48.392;10.836;2022-10-04T00:08:53;7.60;;;4.60;;
6113;SDS011;3087;48.392;10.836;2022-10-04T00:11:30;7.47;;;4.20;;
6113;SDS011;3087;48.392;10.836;2022-10-04T00:14:00;6.43;;;4.27;;
6113;SDS011;3087;48.392;10.836;2022-10-04T00:16:35;8.53;;;4.47;;
6113;SDS011;3087;48.392;10.836;2022-10-04T00:29:22;9.30;;;5.13;;
6113;SDS011;3087;48.392;10.836;2022-10-04T00:37:18;8.67;;;5.50;;
6113;SDS011;3087;48.392;10.836;2022-10-04T00:39:46;9.03;;;5.40;;
6113;SDS011;3087;48.392;10.836;2022-10-04T00:48:23;8.87;;;4.57;;
6113;SDS011;3087;48.392;10.836;2022-10-04T00:50:57;7.00;;;4.80;;
6113;SDS011;3087;48.392;10.836;2022-10-04T00:53:44;6.60;;;3.80;;
6113;SDS011;3087;48.392;10.836;2022-10-04T00:56:18;8.10;;;3.72;;
6113;SDS011;3087;48.392;10.836;2022-10-04T01:01:22;6.37;;;3.87;;
6113;SDS011;3087;48.392;10.836;2022-10-04T01:03:50;5.33;;;3.23;;
6113;SDS011;3087;48.392;10.836;2022-10-04T01:06:20;5.67;;;2.97;;
6113;SDS011;3087;48.392;10.836;2022-10-04T01:08:50;3.73;;;2.63;;
6113;SDS011;3087;48.392;10.836;2022-10-04T01:11:29;6.17;;;3.77;;
6113;SDS011;3087;48.392;10.836;2022-10-04T01:14:05;5.97;;;3.15;;
6113;SDS011;3087;48.392;10.836;2022-10-04T01:16:35;6.90;;;3.30;;
6113;SDS011;3087;48.392;10.836;2022-10-04T01:19:18;4.55;;;2.80;;
6113;SDS011;3087;48.392;10.836;2022-10-04T01:24:33;6.87;;;3.57;;
6113;SDS011;3087;48.392;10.836;2022-10-04T01:27:00;7.80;;;3.23;;
6113;SDS011;3087;48.392;10.836;2022-10-04T01:29:27;7.30;;;3.80;;
6113;SDS011;3087;48.392;10.836;2022-10-04T01:31:55;6.10;;;4.27;;
6113;SDS011;3087;48.392;10.836;2022-10-04T01:34:24;11.57;;;4.67;;
6113;SDS011;3087;48.392;10.836;2022-10-04T01:36:52;6.47;;;4.10;;
6113;SDS011;3087;48.392;10.836;2022-10-04T01:39:20;7.50;;;4.70;;
6113;SDS011;3087;48.392;10.836;2022-10-04T01:44:22;5.77;;;4.00;;
6113;SDS011;3087;48.392;10.836;2022-10-04T01:47:08;7.37;;;3.33;;
6113;SDS011;3087;48.392;10.836;2022-10-04T01:49:42;7.63;;;3.80;;
6113;SDS011;3087;48.392;10.836;2022-10-04T01:52:14;5.73;;;3.97;;
6113;SDS011;3087;48.392;10.836;2022-10-04T01:54:45;6.53;;;3.90;;
6113;SDS011;3087;48.392;10.836;2022-10-04T01:57:16;6.87;;;4.00;;
6113;SDS011;3087;48.392;10.836;2022-10-04T01:59:52;5.93;;;4.07;;
6113;SDS011;3087;48.392;10.836;2022-10-04T02:04:57;7.93;;;4.43;;
6113;SDS011;3087;48.392;10.836;2022-10-04T02:07:24;4.33;;;3.30;;
6113;SDS011;3087;48.392;10.836;2022-10-04T02:09:54;5.80;;;3.23;;
6113;SDS011;3087;48.392;10.836;2022-10-04T02:12:23;5.70;;;3.80;;
6113;SDS011;3087;48.392;10.836;2022-10-04T02:14:51;6.43;;;3.30;;
6113;SDS011;3087;48.392;10.836;2022-10-04T02:17:19;8.43;;;3.40;;
6113;SDS011;3087;48.392;10.836;2022-10-04T02:19:52;5.27;;;3.53;;
6113;SDS011;3087;48.392;10.836;2022-10-04T02:22:18;5.57;;;3.10;;
6113;SDS011;3087;48.392;10.836;2022-10-04T02:24:47;6.40;;;3.23;;
6113;SDS011;3087;48.392;10.836;2022-10-04T02:27:14;4.57;;;3.30;;
6113;SDS011;3087;48.392;10.836;2022-10-04T02:29:40;5.00;;;3.37;;
6113;SDS011;3087;48.392;10.836;2022-10-04T02:32:07;4.17;;;3.20;;
6113;SDS011;3087;48.392;10.836;2022-10-04T02:34:52;4.13;;;2.57;;
6113;SDS011;3087;48.392;10.836;2022-10-04T02:37:22;4.93;;;2.97;;
6113;SDS011;3087;48.392;10.836;2022-10-04T02:39:52;4.27;;;3.00;;
6113;SDS011;3087;48.392;10.836;2022-10-04T02:42:36;4.30;;;3.17;;
6113;SDS011;3087;48.392;10.836;2022-10-04T02:47:45;4.20;;;3.20;;
6113;SDS011;3087;48.392;10.836;2022-10-04T02:50:27;8.27;;;3.33;;
6113;SDS011;3087;48.392;10.836;2022-10-04T02:53:11;4.53;;;2.73;;
6113;SDS011;3087;48.392;10.836;2022-10-04T02:55:54;3.50;;;2.70;;
6113;SDS011;3087;48.392;10.836;2022-10-04T02:58:21;6.30;;;3.50;;
6113;SDS011;3087;48.392;10.836;2022-10-04T03:00:54;5.00;;;3.03;;
6113;SDS011;3087;48.392;10.836;2022-10-04T03:03:28;5.43;;;3.03;;
6113;SDS011;3087;48.392;10.836;2022-10-04T03:06:00;8.40;;;3.47;;
6113;SDS011;3087;48.392;10.836;2022-10-04T03:08:36;3.53;;;2.93;;
6113;SDS011;3087;48.392;10.836;2022-10-04T03:11:10;8.30;;;3.40;;
6113;SDS011;3087;48.392;10.836;2022-10-04T03:13:38;4.73;;;3.60;;
6113;SDS011;3087;48.392;10.836;2022-10-04T03:16:07;6.17;;;3.40;;
6113;SDS011;3087;48.392;10.836;2022-10-04T03:18:34;6.30;;;3.03;;
6113;SDS011;3087;48.392;10.836;2022-10-04T03:21:02;5.10;;;3.20;;
6113;SDS011;3087;48.392;10.836;2022-10-04T03:23:32;5.60;;;3.40;;
6113;SDS011;3087;48.392;10.836;2022-10-04T03:26:00;3.07;;;2.77;;
6113;SDS011;3087;48.392;10.836;2022-10-04T03:28:30;7.20;;;3.73;;
6113;SDS011;3087;48.392;10.836;2022-10-04T03:30:55;8.40;;;4.10;;
6113;SDS011;3087;48.392;10.836;2022-10-04T03:33:22;4.10;;;3.13;;
6113;SDS011;3087;48.392;10.836;2022-10-04T03:35:51;6.27;;;3.17;;
6113;SDS011;3087;48.392;10.836;2022-10-04T03:38:19;4.67;;;3.23;;
6113;SDS011;3087;48.392;10.836;2022-10-04T03:40:50;4.77;;;3.37;;
6113;SDS011;3087;48.392;10.836;2022-10-04T03:43:21;6.07;;;3.57;;
6113;SDS011;3087;48.392;10.836;2022-10-04T03:45:50;4.40;;;3.20;;
6113;SDS011;3087;48.392;10.836;2022-10-04T03:48:19;7.10;;;3.87;;
6113;SDS011;3087;48.392;10.836;2022-10-04T03:50:51;4.17;;;2.87;;
6113;SDS011;3087;48.392;10.836;2022-10-04T03:53:23;3.73;;;3.17;;
6113;SDS011;3087;48.392;10.836;2022-10-04T03:55:53;3.70;;;2.97;;
6113;SDS011;3087;48.392;10.836;2022-10-04T03:58:26;5.50;;;3.40;;
6113;SDS011;3087;48.392;10.836;2022-10-04T04:01:05;6.70;;;3.30;;
6113;SDS011;3087;48.392;10.836;2022-10-04T04:03:44;5.27;;;3.80;;
6113;SDS011;3087;48.392;10.836;2022-10-04T04:06:17;7.47;;;4.27;;
6113;SDS011;3087;48.392;10.836;2022-10-04T04:08:44;18.53;;;12.33;;
6113;SDS011;3087;48.392;10.836;2022-10-04T04:11:22;11.57;;;8.23;;
6113;SDS011;3087;48.392;10.836;2022-10-04T04:14:01;9.00;;;5.80;;
6113;SDS011;3087;48.392;10.836;2022-10-04T04:16:32;6.57;;;5.00;;
6113;SDS011;3087;48.392;10.836;2022-10-04T04:18:59;9.40;;;3.83;;
6113;SDS011;3087;48.392;10.836;2022-10-04T04:21:27;4.40;;;3.80;;
6113;SDS011;3087;48.392;10.836;2022-10-04T04:23:55;7.50;;;3.90;;
6113;SDS011;3087;48.392;10.836;2022-10-04T04:26:27;6.57;;;3.73;;
6113;SDS011;3087;48.392;10.836;2022-10-04T04:32:11;7.83;;;4.10;;
6113;SDS011;3087;48.392;10.836;2022-10-04T04:34:51;5.53;;;3.80;;
6113;SDS011;3087;48.392;10.836;2022-10-04T04:37:17;5.10;;;4.10;;
6113;SDS011;3087;48.392;10.836;2022-10-04T04:39:44;6.87;;;3.37;;
6113;SDS011;3087;48.392;10.836;2022-10-04T04:47:30;6.40;;;5.13;;
6113;SDS011;3087;48.392;10.836;2022-10-04T04:50:42;7.47;;;4.70;;
6113;SDS011;3087;48.392;10.836;2022-10-04T04:52:53;10.00;;;5.00;;
6113;SDS011;3087;48.392;10.836;2022-10-04T04:55:27;7.83;;;4.90;;
6113;SDS011;3087;48.392;10.836;2022-10-04T04:57:56;6.53;;;4.87;;
6113;SDS011;3087;48.392;10.836;2022-10-04T05:00:30;6.37;;;4.87;;
6113;SDS011;3087;48.392;10.836;2022-10-04T05:03:02;6.93;;;5.27;;
6113;SDS011;3087;48.392;10.836;2022-10-04T05:05:42;6.73;;;4.63;;
6113;SDS011;3087;48.392;10.836;2022-10-04T05:08:21;5.07;;;4.50;;
6113;SDS011;3087;48.392;10.836;2022-10-04T05:13:31;5.53;;;4.60;;
6113;SDS011;3087;48.392;10.836;2022-10-04T05:18:59;7.00;;;6.03;;
6113;SDS011;3087;48.392;10.836;2022-10-04T05:21:29;8.43;;;7.07;;
6113;SDS011;3087;48.392;10.836;2022-10-04T05:23:57;6.63;;;5.77;;
6113;SDS011;3087;48.392;10.836;2022-10-04T05:26:30;6.90;;;5.17;;
6113;SDS011;3087;48.392;10.836;2022-10-04T05:28:58;5.97;;;5.33;;
6113;SDS011;3087;48.392;10.836;2022-10-04T05:31:33;7.23;;;4.70;;
6113;SDS011;3087;48.392;10.836;2022-10-04T05:34:05;5.60;;;4.20;;
6113;SDS011;3087;48.392;10.836;2022-10-04T05:47:42;6.67;;;4.77;;
6113;SDS011;3087;48.392;10.836;2022-10-04T05:50:15;5.70;;;4.23;;
6113;SDS011;3087;48.392;10.836;2022-10-04T05:52:45;6.50;;;4.83;;
6113;SDS011;3087;48.392;10.836;2022-10-04T05:55:15;7.27;;;4.63;;
6113;SDS011;3087;48.392;10.836;2022-10-04T05:57:47;7.20;;;5.07;;
6113;SDS011;3087;48.392;10.836;2022-10-04T06:07:00;16.80;;;12.63;;
6113;SDS011;3087;48.392;10.836;2022-10-04T06:12:13;9.53;;;6.60;;
6113;SDS011;3087;48.392;10.836;2022-10-04T06:17:28;8.80;;;5.67;;
6113;SDS011;3087;48.392;10.836;2022-10-04T06:22:47;8.13;;;6.07;;
6113;SDS011;3087;48.392;10.836;2022-10-04T06:25:24;7.40;;;5.00;;
6113;SDS011;3087;48.392;10.836;2022-10-04T06:30:24;8.40;;;6.17;;
6113;SDS011;3087;48.392;10.836;2022-10-04T07:00:07;10.47;;;6.53;;
6113;SDS011;3087;48.392;10.836;2022-10-04T07:02:41;9.80;;;6.20;;
6113;SDS011;3087;48.392;10.836;2022-10-04T07:07:55;9.20;;;6.43;;
6113;SDS011;3087;48.392;10.836;2022-10-04T07:10:56;11.60;;;6.73;;
6113;SDS011;3087;48.392;10.836;2022-10-04T07:18:27;7.57;;;6.50;;
6113;SDS011;3087;48.392;10.836;2022-10-04T07:21:09;9.47;;;5.43;;
6113;SDS011;3087;48.392;10.836;2022-10-04T07:24:11;9.43;;;6.27;;
6113;SDS011;3087;48.392;10.836;2022-10-04T07:26:44;9.70;;;5.17;;
6113;SDS011;3087;48.392;10.836;2022-10-04T07:29:18;9.27;;;6.00;;
6113;SDS011;3087;48.392;10.836;2022-10-04T07:32:00;10.53;;;5.97;;
6113;SDS011;3087;48.392;10.836;2022-10-04T07:34:31;8.33;;;5.73;;
6113;SDS011;3087;48.392;10.836;2022-10-04T07:37:07;9.83;;;5.60;;
6113;SDS011;3087;48.392;10.836;2022-10-04T07:42:28;7.65;;;5.05;;
6113;SDS011;3087;48.392;10.836;2022-10-04T07:48:00;11.23;;;7.20;;
6113;SDS011;3087;48.392;10.836;2022-10-04T07:50:35;7.73;;;5.83;;
6113;SDS011;3087;48.392;10.836;2022-10-04T07:53:31;13.25;;;6.30;;
6113;SDS011;3087;48.392;10.836;2022-10-04T07:56:06;8.87;;;6.13;;
6113;SDS011;3087;48.392;10.836;2022-10-04T07:59:03;7.45;;;5.60;;
6113;SDS011;3087;48.392;10.836;2022-10-04T08:01:58;9.63;;;5.93;;
6113;SDS011;3087;48.392;10.836;2022-10-04T08:07:44;6.68;;;5.38;;
6113;SDS011;3087;48.392;10.836;2022-10-04T08:16:01;6.13;;;5.18;;
6113;SDS011;3087;48.392;10.836;2022-10-04T08:18:42;7.63;;;5.75;;
6113;SDS011;3087;48.392;10.836;2022-10-04T08:21:31;8.55;;;6.22;;
6113;SDS011;3087;48.392;10.836;2022-10-04T08:29:41;7.97;;;6.53;;
6113;SDS011;3087;48.392;10.836;2022-10-04T08:43:48;10.48;;;6.40;;
6113;SDS011;3087;48.392;10.836;2022-10-04T09:00:02;10.35;;;5.45;;
6113;SDS011;3087;48.392;10.836;2022-10-04T09:11:21;9.05;;;5.53;;
6113;SDS011;3087;48.392;10.836;2022-10-04T09:16:45;11.27;;;5.30;;
6113;SDS011;3087;48.392;10.836;2022-10-04T09:33:11;9.00;;;6.13;;
6113;SDS011;3087;48.392;10.836;2022-10-04T09:35:32;11.40;;;5.78;;
6113;SDS011;3087;48.392;10.836;2022-10-04T09:41:10;7.45;;;5.07;;
6113;SDS011;3087;48.392;10.836;2022-10-04T09:50:35;10.98;;;5.78;;
6113;SDS011;3087;48.392;10.836;2022-10-04T10:00:51;6.82;;;4.70;;
6113;SDS011;3087;48.392;10.836;2022-10-04T10:03:56;8.90;;;6.05;;
6113;SDS011;3087;48.392;10.836;2022-10-04T10:06:40;10.48;;;4.63;;
6113;SDS011;3087;48.392;10.836;2022-10-04T10:09:39;6.43;;;5.05;;
6113;SDS011;3087;48.392;10.836;2022-10-04T10:41:16;5.88;;;4.95;;
6113;SDS011;3087;48.392;10.836;2022-10-04T10:44:13;8.48;;;4.72;;
6113;SDS011;3087;48.392;10.836;2022-10-04T10:47:30;7.18;;;4.63;;
6113;SDS011;3087;48.392;10.836;2022-10-04T11:09:23;10.52;;;4.65;;
6113;SDS011;3087;48.392;10.836;2022-10-04T11:12:24;7.68;;;4.22;;
6113;SDS011;3087;48.392;10.836;2022-10-04T11:15:31;7.05;;;3.88;;
6113;SDS011;3087;48.392;10.836;2022-10-04T11:48:46;6.00;;;3.70;;
6113;SDS011;3087;48.392;10.836;2022-10-04T12:00:08;7.13;;;4.32;;
6113;SDS011;3087;48.392;10.836;2022-10-04T12:11:38;7.28;;;4.03;;
6113;SDS011;3087;48.392;10.836;2022-10-04T12:23:23;4.65;;;3.63;;
6113;SDS011;3087;48.392;10.836;2022-10-04T12:31:23;6.22;;;3.70;;
6113;SDS011;3087;48.392;10.836;2022-10-04T12:34:04;5.28;;;3.15;;
6113;SDS011;3087;48.392;10.836;2022-10-04T13:08:21;5.35;;;3.55;;
6113;SDS011;3087;48.392;10.836;2022-10-04T13:13:57;8.10;;;3.58;;
6113;SDS011;3087;48.392;10.836;2022-10-04T13:22:22;6.32;;;3.85;;
6113;SDS011;3087;48.392;10.836;2022-10-04T13:25:21;8.95;;;3.60;;
6113;SDS011;3087;48.392;10.836;2022-10-04T13:28:19;4.55;;;3.53;;
6113;SDS011;3087;48.392;10.836;2022-10-04T13:41:09;5.57;;;3.35;;
6113;SDS011;3087;48.392;10.836;2022-10-04T13:49:29;7.68;;;3.60;;
6113;SDS011;3087;48.392;10.836;2022-10-04T13:55:39;5.00;;;3.00;;
6113;SDS011;3087;48.392;10.836;2022-10-04T14:07:20;5.43;;;3.40;;
6113;SDS011;3087;48.392;10.836;2022-10-04T14:31:43;5.10;;;2.67;;
6113;SDS011;3087;48.392;10.836;2022-10-04T14:34:34;4.95;;;3.40;;
6113;SDS011;3087;48.392;10.836;2022-10-04T14:37:20;5.75;;;2.95;;
6113;SDS011;3087;48.392;10.836;2022-10-04T14:40:19;5.65;;;3.28;;
6113;SDS011;3087;48.392;10.836;2022-10-04T15:08:13;6.30;;;3.90;;
6113;SDS011;3087;48.392;10.836;2022-10-04T15:11:18;6.25;;;3.80;;
6113;SDS011;3087;48.392;10.836;2022-10-04T15:13:53;6.15;;;3.55;;
6113;SDS011;3087;48.392;10.836;2022-10-04T15:21:57;5.05;;;3.90;;
6113;SDS011;3087;48.392;10.836;2022-10-04T15:29:59;7.05;;;4.10;;
6113;SDS011;3087;48.392;10.836;2022-10-04T15:36:02;5.97;;;3.53;;
6113;SDS011;3087;48.392;10.836;2022-10-04T15:43:40;5.70;;;3.95;;
6113;SDS011;3087;48.392;10.836;2022-10-04T15:46:30;5.95;;;3.60;;
6113;SDS011;3087;48.392;10.836;2022-10-04T15:49:22;8.32;;;3.65;;
6113;SDS011;3087;48.392;10.836;2022-10-04T15:55:01;6.18;;;3.92;;
6113;SDS011;3087;48.392;10.836;2022-10-04T16:00:21;4.25;;;3.28;;
6113;SDS011;3087;48.392;10.836;2022-10-04T16:05:23;5.13;;;3.17;;
6113;SDS011;3087;48.392;10.836;2022-10-04T16:13:28;5.97;;;3.53;;
6113;SDS011;3087;48.392;10.836;2022-10-04T16:57:18;7.38;;;4.10;;
6113;SDS011;3087;48.392;10.836;2022-10-04T17:12:54;8.40;;;5.05;;
6113;SDS011;3087;48.392;10.836;2022-10-04T17:20:56;8.90;;;5.20;;
6113;SDS011;3087;48.392;10.836;2022-10-04T17:26:16;9.27;;;5.53;;
6113;SDS011;3087;48.392;10.836;2022-10-04T17:29:12;11.82;;;5.65;;
6113;SDS011;3087;48.392;10.836;2022-10-04T17:31:58;10.77;;;6.32;;
6113;SDS011;3087;48.392;10.836;2022-10-04T17:42:24;12.52;;;9.52;;
6113;SDS011;3087;48.392;10.836;2022-10-04T17:48:07;11.95;;;9.65;;
6113;SDS011;3087;48.392;10.836;2022-10-04T17:51:03;11.55;;;8.88;;
6113;SDS011;3087;48.392;10.836;2022-10-04T17:54:13;13.80;;;10.55;;
6113;SDS011;3087;48.392;10.836;2022-10-04T17:59:27;16.00;;;9.75;;
6113;SDS011;3087;48.392;10.836;2022-10-04T18:04:44;16.17;;;10.02;;
6113;SDS011;3087;48.392;10.836;2022-10-04T18:07:24;15.07;;;9.15;;
6113;SDS011;3087;48.392;10.836;2022-10-04T18:18:16;21.08;;;13.35;;
6113;SDS011;3087;48.392;10.836;2022-10-04T18:23:28;25.20;;;13.25;;
6113;SDS011;3087;48.392;10.836;2022-10-04T18:26:01;23.52;;;14.00;;
6113;SDS011;3087;48.392;10.836;2022-10-04T18:28:34;26.73;;;14.63;;
6113;SDS011;3087;48.392;10.836;2022-10-04T18:31:22;24.65;;;14.45;;
6113;SDS011;3087;48.392;10.836;2022-10-04T18:33:53;24.30;;;14.45;;
6113;SDS011;3087;48.392;10.836;2022-10-04T18:36:20;18.52;;;12.13;;
6113;SDS011;3087;48.392;10.836;2022-10-04T18:41:35;18.88;;;11.50;;
6113;SDS011;3087;48.392;10.836;2022-10-04T18:44:22;19.35;;;11.90;;
6113;SDS011;3087;48.392;10.836;2022-10-04T18:46:58;15.38;;;10.30;;
6113;SDS011;3087;48.392;10.836;2022-10-04T18:49:42;14.32;;;9.93;;
6113;SDS011;3087;48.392;10.836;2022-10-04T18:55:25;14.50;;;9.27;;
6113;SDS011;3087;48.392;10.836;2022-10-04T19:04:02;16.10;;;10.43;;
6113;SDS011;3087;48.392;10.836;2022-10-04T19:06:35;12.05;;;8.48;;
6113;SDS011;3087;48.392;10.836;2022-10-04T19:09:23;14.05;;;9.55;;
6113;SDS011;3087;48.392;10.836;2022-10-04T19:12:15;17.40;;;11.63;;
6113;SDS011;3087;48.392;10.836;2022-10-04T19:14:53;17.83;;;11.80;;
6113;SDS011;3087;48.392;10.836;2022-10-04T19:17:25;16.00;;;12.02;;
6113;SDS011;3087;48.392;10.836;2022-10-04T19:25:56;17.73;;;12.50;;
6113;SDS011;3087;48.392;10.836;2022-10-04T19:28:30;18.10;;;12.25;;
6113;SDS011;3087;48.392;10.836;2022-10-04T19:34:32;15.30;;;12.32;;
6113;SDS011;3087;48.392;10.836;2022-10-04T19:37:06;15.93;;;12.95;;
6113;SDS011;3087;48.392;10.836;2022-10-04T19:45:29;15.95;;;13.65;;
6113;SDS011;3087;48.392;10.836;2022-10-04T19:48:17;16.00;;;12.35;;
6113;SDS011;3087;48.392;10.836;2022-10-04T19:50:47;19.70;;;14.52;;
6113;SDS011;3087;48.392;10.836;2022-10-04T19:58:15;32.53;;;16.88;;
6113;SDS011;3087;48.392;10.836;2022-10-04T20:00:48;27.33;;;15.43;;
6113;SDS011;3087;48.392;10.836;2022-10-04T20:03:14;23.55;;;14.30;;
6113;SDS011;3087;48.392;10.836;2022-10-04T20:05:47;23.45;;;15.55;;
6113;SDS011;3087;48.392;10.836;2022-10-04T20:08:15;25.25;;;15.20;;
6113;SDS011;3087;48.392;10.836;2022-10-04T20:11:15;16.35;;;12.05;;
6113;SDS011;3087;48.392;10.836;2022-10-04T20:19:13;17.95;;;10.85;;
6113;SDS011;3087;48.392;10.836;2022-10-04T20:21:43;16.75;;;10.75;;
6113;SDS011;3087;48.392;10.836;2022-10-04T20:24:17;34.95;;;27.40;;
6113;SDS011;3087;48.392;10.836;2022-10-04T20:27:04;12.80;;;8.95;;
6113;SDS011;3087;48.392;10.836;2022-10-04T20:32:08;16.85;;;9.60;;
6113;SDS011;3087;48.392;10.836;2022-10-04T20:37:05;20.65;;;13.20;;
6113;SDS011;3087;48.392;10.836;2022-10-04T20:42:54;15.20;;;9.35;;
6113;SDS011;3087;48.392;10.836;2022-10-04T20:47:35;19.15;;;11.05;;
6113;SDS011;3087;48.392;10.836;2022-10-04T20:52:37;15.00;;;10.32;;
6113;SDS011;3087;48.392;10.836;2022-10-04T20:55:22;14.60;;;10.82;;
6113;SDS011;3087;48.392;10.836;2022-10-04T20:57:52;13.90;;;9.20;;
6113;SDS011;3087;48.392;10.836;2022-10-04T21:00:20;16.02;;;11.30;;
6113;SDS011;3087;48.392;10.836;2022-10-04T21:02:49;17.38;;;11.60;;
6113;SDS011;3087;48.392;10.836;2022-10-04T21:05:37;16.48;;;12.43;;
6113;SDS011;3087;48.392;10.836;2022-10-04T21:11:04;17.40;;;11.93;;
6113;SDS011;3087;48.392;10.836;2022-10-04T21:22:01;16.40;;;11.02;;
6113;SDS011;3087;48.392;10.836;2022-10-04T21:24:37;16.52;;;10.18;;
6113;SDS011;3087;48.392;10.836;2022-10-04T21:30:04;14.07;;;11.00;;
6113;SDS011;3087;48.392;10.836;2022-10-04T21:32:36;13.90;;;9.70;;
6113;SDS011;3087;48.392;10.836;2022-10-04T21:35:03;15.32;;;10.95;;
6113;SDS011;3087;48.392;10.836;2022-10-04T21:37:29;14.85;;;10.70;;
6113;SDS011;3087;48.392;10.836;2022-10-04T21:39:55;12.38;;;10.07;;
6113;SDS011;3087;48.392;10.836;2022-10-04T21:42:21;11.15;;;8.85;;
6113;SDS011;3087;48.392;10.836;2022-10-04T21:44:47;14.18;;;9.65;;
6113;SDS011;3087;48.392;10.836;2022-10-04T21:47:12;11.90;;;9.98;;
6113;SDS011;3087;48.392;10.836;2022-10-04T21:49:38;14.00;;;10.60;;
6113;SDS011;3087;48.392;10.836;2022-10-04T21:52:04;12.60;;;10.18;;
6113;SDS011;3087;48.392;10.836;2022-10-04T21:54:30;15.85;;;11.85;;
6113;SDS011;3087;48.392;10.836;2022-10-04T21:56:56;13.35;;;10.40;;
6113;SDS011;3087;48.392;10.836;2022-10-04T21:59:22;13.02;;;10.25;;
6113;SDS011;3087;48.392;10.836;2022-10-04T22:01:48;15.73;;;10.65;;
6113;SDS011;3087;48.392;10.836;2022-10-04T22:04:14;16.85;;;9.80;;
6113;SDS011;3087;48.392;10.836;2022-10-04T22:06:39;12.35;;;9.98;;
6113;SDS011;3087;48.392;10.836;2022-10-04T22:09:06;12.60;;;9.65;;
6113;SDS011;3087;48.392;10.836;2022-10-04T22:11:32;13.70;;;9.88;;
6113;SDS011;3087;48.392;10.836;2022-10-04T22:13:58;13.20;;;8.38;;
6113;SDS011;3087;48.392;10.836;2022-10-04T22:16:24;12.60;;;8.20;;
6113;SDS011;3087;48.392;10.836;2022-10-04T22:18:50;10.02;;;8.50;;
6113;SDS011;3087;48.392;10.836;2022-10-04T22:21:16;11.18;;;8.20;;
6113;SDS011;3087;48.392;10.836;2022-10-04T22:23:42;9.68;;;7.13;;
6113;SDS011;3087;48.392;10.836;2022-10-04T22:26:12;12.07;;;7.75;;
6113;SDS011;3087;48.392;10.836;2022-10-04T22:31:12;12.90;;;8.88;;
6113;SDS011;3087;48.392;10.836;2022-10-04T22:33:41;11.10;;;8.52;;
6113;SDS011;3087;48.392;10.836;2022-10-04T22:36:12;11.02;;;7.97;;
6113;SDS011;3087;48.392;10.836;2022-10-04T22:38:50;10.38;;;8.10;;
6113;SDS011;3087;48.392;10.836;2022-10-04T22:44:27;11.20;;;8.10;;
6113;SDS011;3087;48.392;10.836;2022-10-04T22:46:58;10.43;;;7.78;;
6113;SDS011;3087;48.392;10.836;2022-10-04T22:49:26;11.98;;;7.88;;
6113;SDS011;3087;48.392;10.836;2022-10-04T22:51:57;10.70;;;8.00;;
6113;SDS011;3087;48.392;10.836;2022-10-04T22:54:26;12.18;;;7.35;;
6113;SDS011;3087;48.392;10.836;2022-10-04T22:56:58;10.20;;;7.13;;
6113;SDS011;3087;48.392;10.836;2022-10-04T22:59:37;10.18;;;7.57;;
6113;SDS011;3087;48.392;10.836;2022-10-04T23:04:56;13.07;;;8.38;;
6113;SDS011;3087;48.392;10.836;2022-10-04T23:07:25;12.00;;;8.35;;
6113;SDS011;3087;48.392;10.836;2022-10-04T23:09:51;10.50;;;7.72;;
6113;SDS011;3087;48.392;10.836;2022-10-04T23:12:17;10.43;;;7.22;;
6113;SDS011;3087;48.392;10.836;2022-10-04T23:14:45;9.50;;;7.80;;
6113;SDS011;3087;48.392;10.836;2022-10-04T23:17:56;12.45;;;8.18;;
6113;SDS011;3087;48.392;10.836;2022-10-04T23:22:38;10.38;;;7.72;;
6113;SDS011;3087;48.392;10.836;2022-10-04T23:27:50;13.18;;;7.95;;
6113;SDS011;3087;48.392;10.836;2022-10-04T23:30:20;9.65;;;7.68;;
6113;SDS011;3087;48.392;10.836;2022-10-04T23:32:47;9.27;;;7.63;;
6113;SDS011;3087;48.392;10.836;2022-10-04T23:35:15;13.48;;;7.97;;
6113;SDS011;3087;48.392;10.836;2022-10-04T23:37:48;7.70;;;6.63;;
6113;SDS011;3087;48.392;10.836;2022-10-04T23:40:16;7.80;;;6.88;;
6113;SDS011;3087;48.392;10.836;2022-10-04T23:42:44;10.52;;;7.57;;
6113;SDS011;3087;48.392;10.836;2022-10-04T23:45:17;7.25;;;6.00;;
6113;SDS011;3087;48.392;10.836;2022-10-04T23:47:45;8.38;;;6.57;;
6113;SDS011;3087;48.392;10.836;2022-10-04T23:50:19;7.88;;;6.93;;
6113;SDS011;3087;48.392;10.836;2022-10-04T23:52:49;10.25;;;5.88;;
6113;SDS011;3087;48.392;10.836;2022-10-04T23:55:28;7.75;;;5.93;;
6113;SDS011;3087;48.392;10.836;2022-10-04T23:57:58;7.55;;;5.80;;
